createdAt,value
2023-10-13T00:02:04.442Z,13.97
2023-10-13T00:04:36.953Z,13.92
2023-10-13T00:07:10.082Z,13.91
2023-10-13T00:09:38.766Z,13.91
2023-10-13T00:12:14.931Z,13.95
2023-10-13T00:14:46.781Z,13.97
2023-10-13T00:17:21.997Z,13.96
2023-10-13T00:19:53.954Z,13.88
2023-10-13T00:22:24.353Z,13.79
2023-10-13T00:24:59.660Z,13.73
2023-10-13T00:27:27.819Z,13.73
2023-10-13T00:30:20.242Z,13.73
2023-10-13T00:32:57.563Z,13.69
2023-10-13T00:35:30.791Z,13.62
2023-10-13T00:38:13.875Z,13.57
2023-10-13T00:40:45.635Z,13.54
2023-10-13T00:43:19.713Z,13.48
2023-10-13T00:46:06.292Z,13.51
2023-10-13T00:48:55.772Z,13.52
2023-10-13T00:51:36.229Z,13.51
2023-10-13T00:54:12.497Z,13.50
2023-10-13T00:56:50.058Z,13.56
2023-10-13T00:59:19.195Z,13.61
2023-10-13T01:01:51.142Z,13.66
2023-10-13T01:04:20.662Z,13.70
2023-10-13T01:06:48.804Z,13.70
2023-10-13T01:09:20.395Z,13.68
2023-10-13T01:11:54.343Z,13.65
2023-10-13T01:14:32.771Z,13.69
2023-10-13T01:17:02.759Z,13.62
2023-10-13T01:19:40.039Z,13.56
2023-10-13T01:22:08.285Z,13.52
2023-10-13T01:24:36.536Z,13.49
2023-10-13T01:27:19.010Z,13.57
2023-10-13T01:29:49.772Z,13.66
2023-10-13T01:32:20.094Z,13.73
2023-10-13T01:34:50.721Z,13.79
2023-10-13T01:37:20.707Z,13.84
2023-10-13T01:39:50.543Z,13.86
2023-10-13T01:42:23.607Z,13.85
2023-10-13T01:44:52.249Z,13.83
2023-10-13T01:47:22.122Z,13.79
2023-10-13T01:49:51.797Z,13.78
2023-10-13T01:52:20.638Z,13.76
2023-10-13T01:54:51.262Z,13.72
2023-10-13T01:57:19.773Z,13.64
2023-10-13T01:59:50.237Z,13.61
2023-10-13T02:02:30.788Z,13.63
2023-10-13T02:05:02.260Z,13.59
2023-10-13T02:07:36.122Z,13.49
2023-10-13T02:10:07.596Z,13.35
2023-10-13T02:12:44.216Z,13.24
2023-10-13T02:15:23.360Z,13.17
2023-10-13T02:17:56.801Z,13.14
2023-10-13T02:20:31.734Z,13.09
2023-10-13T02:23:01.537Z,13.01
2023-10-13T02:25:45.238Z,12.92
2023-10-13T02:28:22.541Z,12.86
2023-10-13T02:30:51.825Z,12.85
2023-10-13T02:33:23.389Z,12.89
2023-10-13T02:35:54.537Z,12.92
2023-10-13T02:38:35.944Z,12.94
2023-10-13T02:41:07.205Z,13.00
2023-10-13T02:43:36.345Z,13.04
2023-10-13T02:46:05.839Z,12.98
2023-10-13T02:48:45.040Z,12.91
2023-10-13T02:51:19.628Z,12.94
2023-10-13T02:53:51.756Z,12.90
2023-10-13T02:56:24.215Z,12.91
2023-10-13T02:58:54.764Z,12.86
2023-10-13T03:01:28.621Z,12.86
2023-10-13T03:03:59.799Z,12.88
2023-10-13T03:06:35.061Z,12.85
2023-10-13T03:09:20.773Z,12.85
2023-10-13T03:11:50.354Z,12.80
2023-10-13T03:14:29.763Z,12.72
2023-10-13T03:17:10.655Z,12.71
2023-10-13T03:19:39.783Z,12.63
2023-10-13T03:22:17.245Z,12.57
2023-10-13T03:24:49.032Z,12.55
2023-10-13T03:27:23.410Z,12.56
2023-10-13T03:30:01.941Z,12.60
2023-10-13T03:32:31.838Z,12.63
2023-10-13T03:35:02.815Z,12.66
2023-10-13T03:37:36.865Z,12.70
2023-10-13T03:40:21.652Z,12.77
2023-10-13T03:43:26.985Z,12.85
2023-10-13T03:46:02.451Z,12.85
2023-10-13T03:48:31.045Z,12.88
2023-10-13T03:51:10.193Z,12.90
2023-10-13T03:53:55.654Z,12.94
2023-10-13T03:56:33.026Z,12.92
2023-10-13T03:59:07.448Z,12.90
2023-10-13T04:01:55.828Z,12.88
2023-10-13T04:04:44.786Z,12.88
2023-10-13T04:07:12.875Z,12.86
2023-10-13T04:09:41.289Z,12.83
2023-10-13T04:12:12.740Z,12.79
2023-10-13T04:15:04.382Z,12.76
2023-10-13T04:17:41.869Z,12.72
2023-10-13T04:20:10.255Z,12.67
2023-10-13T04:22:51.098Z,12.64
2023-10-13T04:25:37.124Z,12.60
2023-10-13T04:28:17.775Z,12.59
2023-10-13T04:30:57.379Z,12.59
2023-10-13T04:33:33.264Z,12.58
2023-10-13T04:36:26.974Z,12.55
2023-10-13T04:38:58.542Z,12.53
2023-10-13T04:41:58.112Z,12.55
2023-10-13T04:44:45.300Z,12.58
2023-10-13T04:47:22.554Z,12.59
2023-10-13T04:49:51.340Z,12.61
2023-10-13T04:52:39.081Z,12.63
2023-10-13T04:55:44.713Z,12.69
2023-10-13T04:58:16.271Z,12.73
2023-10-13T05:00:56.682Z,12.73
2023-10-13T05:03:47.838Z,12.77
2023-10-13T05:06:35.862Z,12.81
2023-10-13T05:09:22.828Z,12.82
2023-10-13T05:12:09.589Z,12.86
2023-10-13T05:14:58.573Z,12.88
2023-10-13T05:17:45.425Z,12.92
2023-10-13T05:20:31.847Z,12.95
2023-10-13T05:23:18.384Z,12.94
2023-10-13T05:26:04.969Z,12.98
2023-10-13T05:28:51.821Z,12.99
2023-10-13T05:31:38.789Z,13.01
2023-10-13T05:34:26.087Z,13.05
2023-10-13T05:37:12.536Z,13.03
2023-10-13T05:39:59.114Z,13.06
2023-10-13T05:42:45.841Z,13.06
2023-10-13T05:45:39.937Z,13.10
2023-10-13T05:48:15.529Z,13.15
2023-10-13T05:51:03.188Z,13.23
2023-10-13T05:53:50.044Z,13.27
2023-10-13T05:56:37.033Z,13.30
2023-10-13T05:59:23.884Z,13.34
2023-10-13T06:02:10.645Z,13.37
2023-10-13T06:04:57.321Z,13.39
2023-10-13T06:07:44.195Z,13.43
2023-10-13T06:10:38.446Z,13.47
2023-10-13T06:13:25.068Z,13.47
2023-10-13T06:16:12.174Z,13.47
2023-10-13T06:18:58.710Z,13.47
2023-10-13T06:21:45.453Z,13.49
2023-10-13T06:24:32.453Z,13.53
2023-10-13T06:27:19.279Z,13.55
2023-10-13T06:29:47.524Z,13.59
2023-10-13T06:32:17.551Z,13.63
2023-10-13T06:34:49.022Z,13.65
2023-10-13T06:37:24.219Z,13.66
2023-10-13T06:39:57.589Z,13.68
2023-10-13T06:42:28.509Z,13.71
2023-10-13T06:44:57.568Z,13.76
2023-10-13T06:47:26.088Z,13.80
2023-10-13T06:49:56.049Z,13.84
2023-10-13T06:52:24.495Z,13.91
2023-10-13T06:54:54.586Z,13.96
2023-10-13T06:57:22.735Z,14.01
2023-10-13T06:59:50.827Z,14.05
2023-10-13T07:02:28.498Z,14.10
2023-10-13T07:05:09.184Z,14.14
2023-10-13T07:07:40.143Z,14.18
2023-10-13T07:10:15.611Z,14.20
2023-10-13T07:12:46.810Z,14.23
2023-10-13T07:15:17.698Z,14.25
2023-10-13T07:17:56.155Z,14.30
2023-10-13T07:20:30.084Z,14.33
2023-10-13T07:23:08.126Z,14.37
2023-10-13T07:25:41.992Z,14.38
2023-10-13T07:28:10.655Z,14.39
2023-10-13T07:30:54.889Z,14.38
2023-10-13T07:33:23.274Z,14.37
2023-10-13T07:36:16.931Z,14.38
2023-10-13T07:39:19.480Z,14.40
2023-10-13T07:41:56.492Z,14.43
2023-10-13T07:44:30.154Z,14.47
2023-10-13T07:47:01.339Z,14.52
2023-10-13T07:49:32.228Z,14.58
2023-10-13T07:52:16.331Z,14.64
2023-10-13T07:54:48.820Z,14.76
2023-10-13T07:57:18.473Z,14.87
2023-10-13T07:59:53.722Z,14.98
2023-10-13T08:02:40.774Z,15.08
2023-10-13T08:05:16.213Z,15.13
2023-10-13T08:07:44.339Z,15.20
2023-10-13T08:10:17.165Z,15.35
2023-10-13T08:12:45.427Z,15.47
2023-10-13T08:15:22.812Z,15.59
2023-10-13T08:17:53.769Z,15.68
2023-10-13T08:20:23.311Z,15.75
2023-10-13T08:22:51.606Z,15.83
2023-10-13T08:25:26.204Z,15.84
2023-10-13T08:28:14.796Z,15.80
2023-10-13T08:30:54.120Z,15.78
2023-10-13T08:33:29.098Z,15.79
2023-10-13T08:36:17.605Z,15.83
2023-10-13T08:38:56.743Z,15.88
2023-10-13T08:41:25.046Z,15.97
2023-10-13T08:43:54.555Z,15.99
2023-10-13T08:46:26.637Z,15.98
2023-10-13T08:49:16.711Z,15.99
2023-10-13T08:51:46.173Z,15.98
2023-10-13T08:54:35.532Z,15.96
2023-10-13T08:57:21.603Z,15.96
2023-10-13T08:59:56.587Z,15.99
2023-10-13T09:02:44.576Z,16.04
2023-10-13T09:05:31.911Z,16.10
2023-10-13T09:08:10.922Z,16.17
2023-10-13T09:11:07.073Z,16.19
2023-10-13T09:13:45.708Z,16.24
2023-10-13T09:16:40.969Z,16.32
2023-10-13T09:19:13.142Z,16.39
2023-10-13T09:21:42.898Z,16.46
2023-10-13T09:24:24.789Z,16.54
2023-10-13T09:26:57.469Z,16.60
2023-10-13T09:29:26.466Z,16.67
2023-10-13T09:32:10.886Z,16.77
2023-10-13T09:34:54.219Z,16.85
2023-10-13T09:37:26.725Z,16.89
2023-10-13T09:40:06.059Z,16.95
2023-10-13T09:42:35.527Z,17.03
2023-10-13T09:45:05.890Z,17.13
2023-10-13T09:47:39.050Z,17.19
2023-10-13T09:50:25.587Z,17.21
2023-10-13T09:52:55.850Z,17.24
2023-10-13T09:55:40.733Z,17.28
2023-10-13T09:58:21.223Z,17.31
2023-10-13T10:01:11.799Z,17.37
2023-10-13T10:03:52.910Z,17.36
2023-10-13T10:06:32.446Z,17.36
2023-10-13T10:09:13.802Z,17.37
2023-10-13T10:11:55.774Z,17.39
2023-10-13T10:14:43.659Z,17.44
2023-10-13T10:17:12.123Z,17.48
2023-10-13T10:19:48.660Z,17.53
2023-10-13T10:22:34.543Z,17.59
2023-10-13T10:25:03.972Z,17.66
2023-10-13T10:27:34.025Z,17.70
2023-10-13T10:30:05.342Z,17.72
2023-10-13T10:32:36.948Z,17.66
2023-10-13T10:35:16.680Z,17.64
2023-10-13T10:37:49.850Z,17.73
2023-10-13T10:40:37.651Z,17.76
2023-10-13T10:43:25.651Z,17.84
2023-10-13T10:46:03.822Z,17.84
2023-10-13T10:48:38.416Z,17.86
2023-10-13T10:51:15.585Z,17.90
2023-10-13T10:53:47.838Z,17.94
2023-10-13T10:56:35.713Z,17.99
2023-10-13T10:59:10.487Z,18.06
2023-10-13T11:01:48.793Z,18.12
2023-10-13T11:04:20.835Z,18.14
2023-10-13T11:06:56.153Z,18.21
2023-10-13T11:09:28.515Z,18.29
2023-10-13T11:11:58.564Z,18.41
2023-10-13T11:14:28.834Z,18.54
2023-10-13T11:17:01.828Z,18.56
2023-10-13T11:19:38.452Z,18.58
2023-10-13T11:22:36.213Z,18.61
2023-10-13T11:25:13.169Z,18.62
2023-10-13T11:27:52.479Z,18.67
2023-10-13T11:30:21.901Z,18.73
2023-10-13T11:33:07.695Z,18.72
2023-10-13T11:35:55.055Z,18.71
2023-10-13T11:38:41.606Z,18.70
2023-10-13T11:41:13.515Z,18.68
2023-10-13T11:43:52.229Z,18.65
2023-10-13T11:46:38.771Z,18.61
2023-10-13T11:49:15.381Z,18.59
2023-10-13T11:51:50.629Z,18.60
2023-10-13T11:54:21.058Z,18.63
2023-10-13T11:56:50.321Z,18.65
2023-10-13T11:59:18.981Z,18.64
2023-10-13T12:02:11.038Z,18.60
2023-10-13T12:05:00.397Z,18.60
2023-10-13T12:07:41.364Z,18.62
2023-10-13T12:10:16.811Z,18.65
2023-10-13T12:12:47.835Z,18.68
2023-10-13T12:15:27.309Z,18.73
2023-10-13T12:17:59.518Z,18.83
2023-10-13T12:20:34.164Z,18.89
2023-10-13T12:23:17.000Z,18.94
2023-10-13T12:25:55.994Z,18.95
2023-10-13T12:28:28.383Z,18.94
2023-10-13T12:30:59.038Z,18.97
2023-10-13T12:33:28.499Z,19.00
2023-10-13T12:36:23.802Z,19.03
2023-10-13T12:39:02.989Z,19.04
2023-10-13T12:41:49.795Z,19.02
2023-10-13T12:44:36.741Z,19.00
2023-10-13T12:47:23.581Z,18.98
2023-10-13T12:49:59.552Z,18.97
2023-10-13T12:52:28.062Z,18.96
2023-10-13T12:54:59.187Z,18.96
2023-10-13T12:57:29.009Z,18.96
2023-10-13T12:59:57.220Z,18.97
2023-10-13T13:02:27.515Z,18.98
2023-10-13T13:05:07.775Z,18.99
2023-10-13T13:07:44.823Z,18.98
2023-10-13T13:10:15.090Z,18.95
2023-10-13T13:12:43.482Z,18.91
2023-10-13T13:15:13.569Z,18.88
2023-10-13T13:17:42.436Z,18.86
2023-10-13T13:20:32.022Z,18.85
2023-10-13T13:23:04.232Z,18.80
2023-10-13T13:25:34.079Z,18.81
2023-10-13T13:28:06.783Z,18.80
2023-10-13T13:30:36.615Z,18.78
2023-10-13T13:33:12.480Z,18.80
2023-10-13T13:35:43.669Z,18.80
2023-10-13T13:38:15.059Z,18.83
2023-10-13T13:40:45.802Z,18.83
2023-10-13T13:43:32.794Z,18.84
2023-10-13T13:46:04.752Z,18.88
2023-10-13T13:48:35.565Z,18.92
2023-10-13T13:51:07.769Z,18.97
2023-10-13T13:53:39.358Z,19.02
2023-10-13T13:56:07.552Z,19.04
2023-10-13T13:58:35.816Z,19.05
2023-10-13T14:01:13.894Z,19.08
2023-10-13T14:03:47.124Z,19.14
2023-10-13T14:06:22.623Z,19.15
2023-10-13T14:08:52.536Z,19.14
2023-10-13T14:11:24.090Z,19.08
2023-10-13T14:13:57.248Z,19.04
2023-10-13T14:16:25.810Z,18.97
2023-10-13T14:18:54.343Z,18.93
2023-10-13T14:21:25.806Z,18.89
2023-10-13T14:23:56.960Z,18.86
2023-10-13T14:26:27.758Z,18.81
2023-10-13T14:29:04.990Z,18.81
2023-10-13T14:31:33.930Z,18.84
2023-10-13T14:34:02.169Z,18.87
2023-10-13T14:36:33.223Z,18.88
2023-10-13T14:39:03.876Z,18.89
2023-10-13T14:41:32.788Z,18.89
2023-10-13T14:44:06.752Z,18.90
2023-10-13T14:46:40.725Z,18.90
2023-10-13T14:49:09.585Z,18.87
2023-10-13T14:51:57.249Z,18.86
2023-10-13T14:54:34.569Z,18.78
2023-10-13T14:57:03.792Z,18.74
2023-10-13T14:59:40.048Z,18.69
2023-10-13T15:02:08.713Z,18.67
2023-10-13T15:04:37.100Z,18.65
2023-10-13T15:07:08.262Z,18.63
2023-10-13T15:09:36.806Z,18.59
2023-10-13T15:12:06.898Z,18.53
2023-10-13T15:14:36.138Z,18.49
2023-10-13T15:17:07.507Z,18.45
2023-10-13T15:19:40.254Z,18.41
2023-10-13T15:22:08.581Z,18.39
2023-10-13T15:24:44.317Z,18.34
2023-10-13T15:27:13.402Z,18.27
2023-10-13T15:29:52.168Z,18.24
2023-10-13T15:32:39.199Z,18.19
2023-10-13T15:35:14.023Z,18.13
2023-10-13T15:37:48.498Z,18.08
2023-10-13T15:40:17.245Z,18.01
2023-10-13T15:42:49.010Z,17.96
2023-10-13T15:45:20.323Z,17.92
2023-10-13T15:50:22.772Z,17.79
2023-10-13T15:52:52.119Z,17.75
2023-10-13T15:55:20.402Z,17.70
2023-10-13T15:57:54.669Z,17.67
2023-10-13T16:00:27.197Z,17.65
2023-10-13T16:02:59.206Z,17.62
2023-10-13T16:05:35.978Z,17.59
2023-10-13T16:08:07.989Z,17.53
2023-10-13T16:10:40.862Z,17.45
2023-10-13T16:13:17.923Z,17.39
2023-10-13T16:15:49.221Z,17.33
2023-10-13T16:18:23.720Z,17.24
2023-10-13T16:20:52.512Z,17.17
2023-10-13T16:23:20.910Z,17.12
2023-10-13T16:25:50.693Z,17.09
2023-10-13T16:28:19.196Z,17.03
2023-10-13T16:30:47.710Z,16.96
2023-10-13T16:33:20.582Z,16.90
2023-10-13T16:35:51.223Z,16.84
2023-10-13T16:38:26.057Z,16.81
2023-10-13T16:40:54.796Z,16.80
2023-10-13T16:43:23.125Z,16.79
2023-10-13T16:45:52.636Z,16.80
2023-10-13T16:48:23.217Z,16.79
2023-10-13T16:50:51.506Z,16.79
2023-10-13T16:53:19.709Z,16.76
2023-10-13T16:55:50.704Z,16.72
2023-10-13T16:58:20.909Z,16.73
2023-10-13T17:00:53.303Z,16.73
2023-10-13T17:03:30.902Z,16.70
2023-10-13T17:06:03.208Z,16.67
2023-10-13T17:08:33.007Z,16.65
2023-10-13T17:11:20.542Z,16.64
2023-10-13T17:13:55.464Z,16.64
2023-10-13T17:16:27.961Z,16.61
2023-10-13T17:19:00.463Z,16.59
2023-10-13T17:21:35.181Z,16.58
2023-10-13T17:24:03.770Z,16.58
2023-10-13T17:26:41.612Z,16.57
2023-10-13T17:29:37.156Z,16.55
2023-10-13T17:32:12.162Z,16.52
2023-10-13T17:35:07.813Z,16.50
2023-10-13T17:37:49.046Z,16.46
2023-10-13T17:40:21.123Z,16.43
2023-10-13T17:43:00.288Z,16.43
2023-10-13T17:45:42.201Z,16.43
2023-10-13T17:48:10.836Z,16.41
2023-10-13T17:50:42.920Z,16.41
2023-10-13T17:53:13.687Z,16.41
2023-10-13T17:55:44.128Z,16.39
2023-10-13T17:58:12.400Z,16.36
2023-10-13T18:00:49.193Z,16.35
2023-10-13T18:03:24.811Z,16.33
2023-10-13T18:06:04.400Z,16.29
2023-10-13T18:08:34.422Z,16.26
2023-10-13T18:11:06.801Z,16.26
2023-10-13T18:13:42.557Z,16.25
2023-10-13T18:16:21.216Z,16.24
2023-10-13T18:19:13.833Z,16.23
2023-10-13T18:21:50.099Z,16.21
2023-10-13T18:24:30.683Z,16.20
2023-10-13T18:27:04.955Z,16.20
2023-10-13T18:29:46.481Z,16.17
2023-10-13T18:32:20.225Z,16.16
2023-10-13T18:34:51.286Z,16.14
2023-10-13T18:37:30.468Z,16.15
2023-10-13T18:43:03.322Z,16.17
2023-10-13T18:45:35.357Z,16.18
2023-10-13T18:48:05.455Z,16.17
2023-10-13T18:50:57.105Z,16.15
2023-10-13T18:53:37.221Z,16.14
2023-10-13T18:56:15.808Z,16.12
2023-10-13T18:58:55.254Z,16.09
2023-10-13T19:01:44.911Z,16.07
2023-10-13T19:04:15.790Z,16.02
2023-10-13T19:07:09.358Z,15.99
2023-10-13T19:09:45.660Z,15.98
2023-10-13T19:12:16.139Z,15.96
2023-10-13T19:14:58.975Z,15.94
2023-10-13T19:17:32.941Z,15.93
2023-10-13T19:20:28.359Z,15.89
2023-10-13T19:23:39.421Z,15.86
2023-10-13T19:26:33.299Z,15.83
2023-10-13T19:29:10.305Z,15.83
2023-10-13T19:31:45.423Z,15.81
2023-10-13T19:34:40.818Z,15.82
2023-10-13T19:37:19.893Z,15.82
2023-10-13T19:39:52.821Z,15.81
2023-10-13T19:42:24.057Z,15.83
2023-10-13T19:45:08.372Z,15.85
2023-10-13T19:47:47.786Z,15.86
2023-10-13T19:50:26.839Z,15.88
2023-10-13T19:53:02.738Z,15.90
2023-10-13T19:55:47.828Z,15.91
2023-10-13T19:58:30.967Z,15.93
2023-10-13T20:01:14.469Z,15.94
2023-10-13T20:03:49.941Z,15.96
2023-10-13T20:06:34.989Z,15.97
2023-10-13T20:09:26.055Z,15.98
2023-10-13T20:11:58.449Z,15.99
2023-10-13T20:14:36.924Z,16.02
2023-10-13T20:17:22.080Z,16.04
2023-10-13T20:19:50.408Z,16.05
2023-10-13T20:22:23.103Z,16.06
2023-10-13T20:25:01.730Z,16.08
2023-10-13T20:27:36.701Z,16.09
2023-10-13T20:30:18.791Z,16.10
2023-10-13T20:32:50.791Z,16.11
2023-10-13T20:35:30.427Z,16.12
2023-10-13T20:38:07.640Z,16.13
2023-10-13T20:40:44.110Z,16.15
2023-10-13T20:43:25.384Z,16.17
2023-10-13T20:46:15.101Z,16.19
2023-10-13T20:48:51.164Z,16.23
2023-10-13T20:51:20.204Z,16.26
2023-10-13T20:53:48.635Z,16.28
2023-10-13T20:56:24.018Z,16.31
2023-10-13T20:58:59.008Z,16.33
2023-10-13T21:01:39.049Z,16.35
2023-10-13T21:04:11.130Z,16.38
2023-10-13T21:06:53.758Z,16.40
2023-10-13T21:09:29.528Z,16.42
2023-10-13T21:12:06.965Z,16.43
2023-10-13T21:14:35.741Z,16.44
2023-10-13T21:17:09.170Z,16.44
2023-10-13T21:19:40.864Z,16.44
2023-10-13T21:22:12.998Z,16.44
2023-10-13T21:24:41.312Z,16.42
2023-10-13T21:27:10.400Z,16.42
2023-10-13T21:29:39.055Z,16.40
2023-10-13T21:32:09.133Z,16.39
2023-10-13T21:34:37.372Z,16.38
2023-10-13T21:37:05.631Z,16.34
2023-10-13T21:39:47.460Z,16.30
2023-10-13T21:42:22.351Z,16.26
2023-10-13T21:44:56.778Z,16.25
2023-10-13T21:47:25.697Z,16.25
2023-10-13T21:49:53.816Z,16.23
2023-10-13T21:52:22.874Z,16.22
2023-10-13T21:54:50.949Z,16.18
2023-10-13T21:57:19.018Z,16.15
2023-10-13T21:59:47.189Z,16.13
2023-10-13T22:02:15.766Z,16.07
2023-10-13T22:04:44.087Z,16.03
2023-10-13T22:07:13.640Z,15.98
2023-10-13T22:09:44.178Z,15.97
2023-10-13T22:12:12.630Z,15.96
2023-10-13T22:14:40.726Z,15.94
2023-10-13T22:17:08.908Z,15.92
2023-10-13T22:19:39.660Z,15.91
2023-10-13T22:22:09.406Z,15.90
2023-10-13T22:24:37.722Z,15.89
2023-10-13T22:27:07.562Z,15.87
2023-10-13T22:29:35.625Z,15.86
2023-10-13T22:32:03.952Z,15.85
2023-10-13T22:34:32.231Z,15.86
2023-10-13T22:37:06.083Z,15.86
2023-10-13T22:39:34.866Z,15.84
2023-10-13T22:42:03.535Z,15.81
2023-10-13T22:44:34.575Z,15.80
2023-10-13T22:47:06.395Z,15.79
2023-10-13T22:49:35.043Z,15.80
2023-10-13T22:52:04.517Z,15.84
2023-10-13T22:54:38.307Z,15.88
2023-10-13T22:57:06.609Z,15.91
2023-10-13T22:59:35.070Z,15.92
2023-10-13T23:02:03.305Z,15.92
2023-10-13T23:04:34.279Z,15.95
2023-10-13T23:07:12.136Z,15.95
2023-10-13T23:09:48.766Z,15.97
2023-10-13T23:12:17.285Z,15.98
2023-10-13T23:14:51.622Z,16.04
2023-10-13T23:17:22.048Z,16.09
2023-10-13T23:19:50.830Z,16.13
2023-10-13T23:22:19.112Z,16.18
2023-10-13T23:24:47.198Z,16.22
2023-10-13T23:27:15.292Z,16.24
2023-10-13T23:29:43.842Z,16.25
2023-10-13T23:32:13.298Z,16.23
2023-10-13T23:34:41.644Z,16.19
2023-10-13T23:37:12.529Z,16.16
2023-10-13T23:39:40.943Z,16.11
2023-10-13T23:42:09.200Z,16.04
2023-10-13T23:44:37.262Z,15.98
2023-10-13T23:47:05.600Z,15.93
2023-10-13T23:49:33.990Z,15.88
2023-10-13T23:52:06.446Z,15.82
2023-10-13T23:54:40.832Z,15.79
2023-10-13T23:57:13.564Z,15.74
2023-10-13T23:59:42.078Z,15.72
